Aviation Digital Data Service (ADDS)

Output produced by METARs form (0123 UTC 23 July 2017)
found at http://www.aviationweather.gov/adds/metars/
 
WSAP 230100Z 14005KT 9999 SCT018 BKN300 29/25 Q1011
TAF WSAP 222300Z 2300/2406 16009KT 9999 SCT020
       
WSSL 230100Z 12005KT 070V210 9999 FEW018 BKN300 29/25 Q1011 RMK 0030Z Q1011
TAF WSSL 222300Z 2300/2406 16009KT 9999 SCT020
       
WSSS 230100Z 13007KT 100V160 9999 SCT015 SCT350 29/26 Q1012 NOSIG
TAF WSSS 222300Z 2300/2406 16009KT 9999 SCT020